Bucks Harbor, Maine
Current Conditions -  °F | °C
As of 9:55 PM on Saturday 25 Oct 2014 (Local Time) from KBHB Reporting Station
Clear Clear  
Wind Chill:   Ceiling: Unl
Heat Index:   Visibility: 10mi
Dew Point:   Wind: 3mph
Humidity: 100%   Direction: 110°ESE
Pressure: 29.51"   Gusts: NA
Location:  44.6541°N, 67.405°W
Report Text: KBHB 260155Z AUTO 11003KT 10SM CLR 09/09 A2951 RMK AO1
Loading
Personal Weather Stations






























Interactive Weather Map
Tropical Storm Tracking
New forecast layout! Learn more

10-Day Weather Forecast

Advertisements
Track Severe Weather on mobile